Time,TemperatureF,DewpointF,PressureIn,WindDirection,WindDirectionDegrees,WindSpeedMPH,WindSpeedGustMPH,Humidity,HourlyPrecipIn,Conditions,Clouds,dailyrainin,SoftwareType,DateUTC
2017-10-19 00:03:00,58.3,50.8,30.05,WNW,301,0.0,0.0,76,0.00,,,0.00,WeatherDisplay:10.37,2017-10-19 04:03:00,
2017-10-19 00:08:00,58.2,50.7,30.05,SE,145,0.0,0.0,76,0.00,,,0.00,WeatherDisplay:10.37,2017-10-19 04:08:00,
2017-10-19 00:13:00,58.1,50.6,30.05,SE,138,0.0,0.0,76,0.00,,,0.00,WeatherDisplay:10.37,2017-10-19 04:13:00,
2017-10-19 00:18:00,58.1,50.9,30.05,SSE,162,0.0,0.0,77,0.00,,,0.00,WeatherDisplay:10.37,2017-10-19 04:18:00,
2017-10-19 00:23:00,57.9,50.7,30.05,SSE,160,0.0,0.0,77,0.00,,,0.00,WeatherDisplay:10.37,2017-10-19 04:23:00,
2017-10-19 00:28:00,57.6,50.8,30.05,SSW,195,0.0,0.0,78,0.00,,,0.00,WeatherDisplay:10.37,2017-10-19 04:28:00,
2017-10-19 00:33:00,57.7,50.9,30.06,South,184,0.0,0.0,78,0.00,,,0.00,WeatherDisplay:10.37,2017-10-19 04:33:00,
2017-10-19 00:38:00,57.8,50.6,30.06,SE,139,0.0,0.0,77,0.00,,,0.00,WeatherDisplay:10.37,2017-10-19 04:38:00,
2017-10-19 00:43:00,57.6,50.8,30.05,SSE,162,0.0,0.0,78,0.00,,,0.00,WeatherDisplay:10.37,2017-10-19 04:43:00,
2017-10-19 00:48:00,57.6,50.8,30.05,SSE,168,1.2,0.0,78,0.00,,,0.00,WeatherDisplay:10.37,2017-10-19 04:48:00,
2017-10-19 00:53:00,57.5,50.7,30.05,South,181,0.0,0.0,78,0.00,,,0.00,WeatherDisplay:10.37,2017-10-19 04:53:00,
2017-10-19 00:58:00,57.2,50.4,30.05,SSE,151,1.2,1.2,78,0.00,,,0.00,WeatherDisplay:10.37,2017-10-19 04:58:00,
2017-10-19 01:03:00,57.1,50.3,30.04,South,179,0.0,0.0,78,0.00,,,0.00,WeatherDisplay:10.37,2017-10-19 05:03:00,
2017-10-19 01:08:00,57.1,50.3,30.04,SE,124,0.0,0.0,78,0.00,,,0.00,WeatherDisplay:10.37,2017-10-19 05:08:00,
2017-10-19 01:13:00,57.0,50.2,30.04,SSE,154,0.0,0.0,78,0.00,,,0.00,WeatherDisplay:10.37,2017-10-19 05:13:00,
2017-10-19 01:18:00,56.8,50.0,30.04,WNW,302,0.0,0.0,78,0.00,,,0.00,WeatherDisplay:10.37,2017-10-19 05:18:00,
2017-10-19 01:23:00,56.8,49.7,30.04,SSE,161,0.0,0.0,77,0.00,,,0.00,WeatherDisplay:10.37,2017-10-19 05:23:00,
2017-10-19 01:28:00,56.7,49.6,30.04,South,172,2.3,2.3,77,0.00,,,0.00,WeatherDisplay:10.37,2017-10-19 05:28:00,
2017-10-19 01:33:00,56.8,49.3,30.04,South,181,0.0,0.0,76,0.00,,,0.00,WeatherDisplay:10.37,2017-10-19 05:33:00,
2017-10-19 01:38:00,56.8,49.3,30.04,SSW,213,0.0,0.0,76,0.00,,,0.00,WeatherDisplay:10.37,2017-10-19 05:38:00,
2017-10-19 01:43:00,56.7,48.9,30.04,SSE,165,2.0,2.0,75,0.00,,,0.00,WeatherDisplay:10.37,2017-10-19 05:43:00,
2017-10-19 01:48:00,57.2,49.0,30.04,SSW,211,1.2,1.2,74,0.00,,,0.00,WeatherDisplay:10.37,2017-10-19 05:48:00,
2017-10-19 01:53:00,57.5,48.9,30.04,SW,214,2.0,2.0,73,0.00,,,0.00,WeatherDisplay:10.37,2017-10-19 05:53:00,
2017-10-19 01:58:00,57.6,48.6,30.04,South,180,1.2,1.2,72,0.00,,,0.00,WeatherDisplay:10.37,2017-10-19 05:58:00,
2017-10-19 02:03:00,57.6,48.3,30.04,South,183,2.3,2.3,71,0.00,,,0.00,WeatherDisplay:10.37,2017-10-19 06:03:00,
2017-10-19 02:08:00,57.7,48.4,30.04,WSW,247,2.3,2.3,71,0.00,,,0.00,WeatherDisplay:10.37,2017-10-19 06:08:00,
2017-10-19 02:13:00,57.6,48.3,30.04,ESE,122,1.2,1.2,71,0.00,,,0.00,WeatherDisplay:10.37,2017-10-19 06:13:00,
2017-10-19 02:18:00,57.5,48.2,30.03,South,182,3.5,0.0,71,0.00,,,0.00,WeatherDisplay:10.37,2017-10-19 06:18:00,
2017-10-19 02:23:00,57.4,48.1,30.03,South,188,1.2,1.2,71,0.00,,,0.00,WeatherDisplay:10.37,2017-10-19 06:23:00,
2017-10-19 02:28:00,57.3,48.0,30.03,SSE,160,1.2,0.0,71,0.00,,,0.00,WeatherDisplay:10.37,2017-10-19 06:28:00,
2017-10-19 02:33:00,57.2,47.9,30.03,SSE,167,0.0,0.0,71,0.00,,,0.00,WeatherDisplay:10.37,2017-10-19 06:33:00,
2017-10-19 02:38:00,57.1,47.8,30.03,SSE,161,0.0,0.0,71,0.00,,,0.00,WeatherDisplay:10.37,2017-10-19 06:38:00,
2017-10-19 02:43:00,57.0,47.7,30.03,WSW,237,1.0,1.0,71,0.00,,,0.00,WeatherDisplay:10.37,2017-10-19 06:43:00,
2017-10-19 02:48:00,56.8,47.5,30.03,NW,321,2.3,2.3,71,0.00,,,0.00,WeatherDisplay:10.37,2017-10-19 06:48:00,
2017-10-19 02:53:00,56.8,47.5,30.03,South,179,3.5,3.5,71,0.00,,,0.00,WeatherDisplay:10.37,2017-10-19 06:53:00,
2017-10-19 02:58:00,56.8,47.1,30.03,South,191,0.0,0.0,70,0.00,,,0.00,WeatherDisplay:10.37,2017-10-19 06:58:00,
2017-10-19 03:03:00,56.7,47.0,30.03,SE,127,1.2,1.2,70,0.00,,,0.00,WeatherDisplay:10.37,2017-10-19 07:03:00,
2017-10-19 03:08:00,56.6,46.9,30.03,South,172,0.0,0.0,70,0.00,,,0.00,WeatherDisplay:10.37,2017-10-19 07:08:00,
2017-10-19 03:13:00,56.6,47.3,30.03,SSE,153,0.0,0.1,71,0.00,,,0.00,WeatherDisplay:10.37,2017-10-19 07:13:00,
2017-10-19 03:18:00,56.5,46.8,30.02,SSE,164,1.0,0.0,70,0.00,,,0.00,WeatherDisplay:10.37,2017-10-19 07:18:00,
2017-10-19 03:23:00,56.4,47.1,30.02,SSE,162,1.2,1.2,71,0.00,,,0.00,WeatherDisplay:10.37,2017-10-19 07:23:00,
2017-10-19 03:28:00,56.4,46.7,30.02,SSE,153,1.2,1.2,70,0.00,,,0.00,WeatherDisplay:10.37,2017-10-19 07:28:00,
2017-10-19 03:33:00,56.2,46.9,30.02,SW,221,2.3,2.3,71,0.00,,,0.00,WeatherDisplay:10.37,2017-10-19 07:33:00,
2017-10-19 03:38:00,56.3,47.0,30.02,South,185,2.3,2.3,71,0.00,,,0.00,WeatherDisplay:10.37,2017-10-19 07:38:00,
2017-10-19 03:43:00,56.2,46.5,30.02,SSE,167,2.0,2.0,70,0.00,,,0.00,WeatherDisplay:10.37,2017-10-19 07:43:00,
2017-10-19 03:48:00,56.3,46.6,30.02,SSE,162,1.2,1.2,70,0.00,,,0.00,WeatherDisplay:10.37,2017-10-19 07:48:00,
2017-10-19 03:53:00,56.3,46.6,30.02,South,179,3.5,3.5,70,0.00,,,0.00,WeatherDisplay:10.37,2017-10-19 07:53:00,
2017-10-19 03:58:00,56.3,46.6,30.02,SSE,156,1.2,1.2,70,0.00,,,0.00,WeatherDisplay:10.37,2017-10-19 07:58:00,
2017-10-19 04:03:00,56.3,47.0,30.02,SSE,167,0.0,0.0,71,0.00,,,0.00,WeatherDisplay:10.37,2017-10-19 08:03:00,
2017-10-19 04:08:00,56.1,46.8,30.02,West,259,0.0,0.0,71,0.00,,,0.00,WeatherDisplay:10.37,2017-10-19 08:08:00,
2017-10-19 04:13:00,55.9,46.6,30.02,SW,225,0.0,0.0,71,0.00,,,0.00,WeatherDisplay:10.37,2017-10-19 08:13:00,
2017-10-19 04:18:00,55.8,46.5,30.01,SSE,149,3.5,3.5,71,0.00,,,0.00,WeatherDisplay:10.37,2017-10-19 08:18:00,
2017-10-19 04:23:00,55.9,46.6,30.01,SSE,155,2.3,2.3,71,0.00,,,0.00,WeatherDisplay:10.37,2017-10-19 08:23:00,
2017-10-19 04:28:00,55.8,46.5,30.01,SSE,165,0.0,0.0,71,0.00,,,0.00,WeatherDisplay:10.37,2017-10-19 08:28:00,
2017-10-19 04:33:00,55.6,46.7,30.01,East,86,1.2,1.2,72,0.00,,,0.00,WeatherDisplay:10.37,2017-10-19 08:33:00,
2017-10-19 04:38:00,55.6,46.7,30.01,SSE,160,1.2,1.2,72,0.00,,,0.00,WeatherDisplay:10.37,2017-10-19 08:38:00,
2017-10-19 04:43:00,55.6,46.7,30.01,SSE,163,0.0,0.0,72,0.00,,,0.00,WeatherDisplay:10.37,2017-10-19 08:43:00,
2017-10-19 04:48:00,55.5,46.6,30.01,SE,140,1.2,0.0,72,0.00,,,0.00,WeatherDisplay:10.37,2017-10-19 08:48:00,
2017-10-19 04:53:00,55.4,46.5,30.01,SSW,211,1.2,1.2,72,0.00,,,0.00,WeatherDisplay:10.37,2017-10-19 08:53:00,
2017-10-19 04:58:00,55.3,46.8,30.01,SSE,160,0.0,0.2,73,0.00,,,0.00,WeatherDisplay:10.37,2017-10-19 08:58:00,
2017-10-19 05:03:00,55.2,46.7,30.00,South,179,1.2,1.2,73,0.00,,,0.00,WeatherDisplay:10.37,2017-10-19 09:03:00,
2017-10-19 05:08:00,55.1,46.6,30.00,SSE,164,0.0,0.0,73,0.00,,,0.00,WeatherDisplay:10.37,2017-10-19 09:08:00,
2017-10-19 05:13:00,55.0,46.5,30.00,NW,304,1.2,1.2,73,0.00,,,0.00,WeatherDisplay:10.37,2017-10-19 09:13:00,
2017-10-19 05:18:00,54.8,46.3,30.00,South,179,0.0,0.1,73,0.00,,,0.00,WeatherDisplay:10.37,2017-10-19 09:18:00,
2017-10-19 05:23:00,54.8,46.7,30.00,South,184,0.0,0.0,74,0.00,,,0.00,WeatherDisplay:10.37,2017-10-19 09:23:00,
2017-10-19 05:28:00,54.7,46.6,30.00,SE,139,0.0,0.0,74,0.00,,,0.00,WeatherDisplay:10.37,2017-10-19 09:28:00,
2017-10-19 05:33:00,54.6,46.5,30.00,South,171,1.2,0.0,74,0.00,,,0.00,WeatherDisplay:10.37,2017-10-19 09:33:00,
2017-10-19 05:38:00,54.8,46.7,30.00,South,174,1.2,0.0,74,0.00,,,0.00,WeatherDisplay:10.37,2017-10-19 09:38:00,
2017-10-19 05:43:00,54.7,46.6,30.00,SSE,158,0.0,0.0,74,0.00,,,0.00,WeatherDisplay:10.37,2017-10-19 09:43:00,
2017-10-19 05:48:00,54.7,46.9,30.00,West,281,3.5,3.5,75,0.00,,,0.00,WeatherDisplay:10.37,2017-10-19 09:48:00,
2017-10-19 05:53:00,54.9,46.8,29.99,SE,134,1.2,1.2,74,0.00,,,0.00,WeatherDisplay:10.37,2017-10-19 09:53:00,
2017-10-19 05:58:00,54.8,47.0,30.00,WSW,238,0.0,0.0,75,0.00,,,0.00,WeatherDisplay:10.37,2017-10-19 09:58:00,
2017-10-19 06:03:00,54.8,47.0,30.00,East,91,1.2,1.2,75,0.00,,,0.00,WeatherDisplay:10.37,2017-10-19 10:03:00,
2017-10-19 06:08:00,54.9,47.1,30.00,SSE,158,2.3,2.3,75,0.00,,,0.00,WeatherDisplay:10.37,2017-10-19 10:08:00,
2017-10-19 06:13:00,55.0,47.2,29.99,South,175,0.0,0.0,75,0.00,,,0.00,WeatherDisplay:10.37,2017-10-19 10:13:00,
2017-10-19 06:18:00,55.1,47.0,30.00,SSE,158,4.6,4.6,74,0.00,,,0.00,WeatherDisplay:10.37,2017-10-19 10:18:00,
2017-10-19 06:23:00,55.1,47.0,30.00,ENE,67,1.2,1.2,74,0.00,,,0.00,WeatherDisplay:10.37,2017-10-19 10:23:00,
2017-10-19 06:28:00,55.2,47.1,30.00,NNW,329,1.2,1.2,74,0.00,,,0.00,WeatherDisplay:10.37,2017-10-19 10:28:00,
2017-10-19 06:33:00,55.2,47.1,29.99,WSW,247,2.3,2.3,74,0.00,,,0.00,WeatherDisplay:10.37,2017-10-19 10:33:00,
2017-10-19 06:38:00,55.2,47.1,29.99,SSW,210,2.0,2.0,74,0.00,,,0.00,WeatherDisplay:10.37,2017-10-19 10:38:00,
2017-10-19 06:43:00,55.2,47.1,29.99,SSE,160,1.2,1.2,74,0.00,,,0.00,WeatherDisplay:10.37,2017-10-19 10:43:00,
2017-10-19 06:48:00,55.2,47.1,30.00,SSE,162,1.0,1.0,74,0.00,,,0.00,WeatherDisplay:10.37,2017-10-19 10:48:00,
2017-10-19 06:53:00,55.1,47.3,30.00,South,182,3.5,3.5,75,0.00,,,0.00,WeatherDisplay:10.37,2017-10-19 10:53:00,
2017-10-19 06:58:00,55.1,47.3,30.00,WNW,295,3.5,3.5,75,0.00,,,0.00,WeatherDisplay:10.37,2017-10-19 10:58:00,
2017-10-19 07:03:00,55.1,47.3,29.99,SSE,153,3.5,3.5,75,0.00,,,0.00,WeatherDisplay:10.37,2017-10-19 11:03:00,
2017-10-19 07:08:00,55.3,47.2,29.99,SSW,200,3.5,3.5,74,0.00,,,0.00,WeatherDisplay:10.37,2017-10-19 11:08:00,
2017-10-19 07:13:00,55.3,47.2,29.99,SE,135,2.3,2.3,74,0.00,,,0.00,WeatherDisplay:10.37,2017-10-19 11:13:00,
2017-10-19 07:18:00,55.4,47.2,29.99,SSW,196,2.3,2.3,74,0.00,CLR,,0.00,WeatherDisplay:10.37,2017-10-19 11:18:00,
2017-10-19 07:23:00,55.4,47.2,29.99,SSE,160,2.3,2.3,74,0.00,CLR,,0.00,WeatherDisplay:10.37,2017-10-19 11:23:00,
2017-10-19 07:28:00,55.4,47.2,29.99,SSE,165,3.5,3.5,74,0.00,CLR,,0.00,WeatherDisplay:10.37,2017-10-19 11:28:00,
2017-10-19 07:33:00,55.4,47.2,29.99,SSE,166,2.3,2.3,74,0.00,CLR,,0.00,WeatherDisplay:10.37,2017-10-19 11:33:00,
2017-10-19 07:38:00,55.5,47.3,29.99,South,185,1.2,1.2,74,0.00,CLR,,0.00,WeatherDisplay:10.37,2017-10-19 11:38:00,
2017-10-19 07:43:00,55.5,47.3,29.99,South,188,3.5,3.5,74,0.00,CLR,,0.00,WeatherDisplay:10.37,2017-10-19 11:43:00,
2017-10-19 07:48:00,55.5,47.3,29.99,SE,144,1.2,1.2,74,0.00,CLR,,0.00,WeatherDisplay:10.37,2017-10-19 11:48:00,
2017-10-19 07:53:00,55.5,47.3,29.99,South,169,3.5,3.5,74,0.00,CLR,,0.00,WeatherDisplay:10.37,2017-10-19 11:53:00,
2017-10-19 07:58:00,55.5,47.3,29.99,SW,218,1.2,1.2,74,0.00,CLR,,0.00,WeatherDisplay:10.37,2017-10-19 11:58:00,
2017-10-19 08:03:00,55.5,47.3,29.99,South,178,2.3,0.0,74,0.00,CLR,,0.00,WeatherDisplay:10.37,2017-10-19 12:03:00,
2017-10-19 08:08:00,55.5,47.3,29.99,SE,146,3.5,3.5,74,0.00,CLR,,0.00,WeatherDisplay:10.37,2017-10-19 12:08:00,
2017-10-19 08:13:00,55.7,47.5,29.99,SSW,212,2.3,2.3,74,0.00,CLR,,0.00,WeatherDisplay:10.37,2017-10-19 12:13:00,
2017-10-19 08:18:00,55.7,47.5,29.99,SE,145,1.2,1.2,74,0.00,CLR,,0.00,WeatherDisplay:10.37,2017-10-19 12:18:00,
2017-10-19 08:23:00,55.7,47.9,29.99,SSE,167,2.3,2.3,75,0.00,CLR,,0.00,WeatherDisplay:10.37,2017-10-19 12:23:00,
2017-10-19 08:28:00,55.8,47.6,29.99,SSE,167,3.5,3.5,74,0.00,CLR,,0.00,WeatherDisplay:10.37,2017-10-19 12:28:00,
2017-10-19 08:33:00,56.0,47.8,30.00,WSW,255,3.5,3.5,74,0.00,CLR,,0.00,WeatherDisplay:10.37,2017-10-19 12:33:00,
2017-10-19 08:38:00,56.0,47.8,30.00,West,262,3.5,3.5,74,0.00,CLR,,0.00,WeatherDisplay:10.37,2017-10-19 12:38:00,
2017-10-19 08:43:00,56.1,47.9,30.00,SSE,165,4.6,4.6,74,0.00,CLR,,0.00,WeatherDisplay:10.37,2017-10-19 12:43:00,
2017-10-19 08:48:00,56.2,48.0,30.00,SE,142,1.2,1.2,74,0.00,CLR,,0.00,WeatherDisplay:10.37,2017-10-19 12:48:00,
2017-10-19 08:53:00,56.2,48.0,30.01,West,278,2.3,2.8,74,0.00,CLR,,0.00,WeatherDisplay:10.37,2017-10-19 12:53:00,
2017-10-19 08:58:00,56.3,48.1,30.01,WNW,293,1.2,1.2,74,0.00,CLR,,0.00,WeatherDisplay:10.37,2017-10-19 12:58:00,
2017-10-19 09:03:00,56.4,48.2,30.00,SSE,152,4.6,4.6,74,0.00,CLR,,0.00,WeatherDisplay:10.37,2017-10-19 13:03:00,
2017-10-19 09:08:00,56.5,48.3,30.00,East,94,3.5,3.5,74,0.00,CLR,,0.00,WeatherDisplay:10.37,2017-10-19 13:08:00,
2017-10-19 09:13:00,56.6,48.4,30.01,SSW,205,2.3,2.3,74,0.00,CLR,,0.00,WeatherDisplay:10.37,2017-10-19 13:13:00,
2017-10-19 09:18:00,56.7,48.5,30.01,West,264,2.3,2.3,74,0.00,CLR,,0.00,WeatherDisplay:10.37,2017-10-19 13:18:00,
2017-10-19 09:23:00,56.7,48.5,30.00,West,259,3.5,3.5,74,0.00,CLR,,0.00,WeatherDisplay:10.37,2017-10-19 13:23:00,
2017-10-19 09:28:00,56.8,48.2,30.01,NW,304,8.1,8.1,73,0.00,CLR,,0.00,WeatherDisplay:10.37,2017-10-19 13:28:00,
2017-10-19 09:33:00,57.1,48.5,30.01,SSW,193,3.5,0.0,73,0.00,CLR,,0.00,WeatherDisplay:10.37,2017-10-19 13:33:00,
2017-10-19 09:38:00,57.6,49.0,30.01,SSE,150,1.2,1.2,73,0.00,CLR,,0.00,WeatherDisplay:10.37,2017-10-19 13:38:00,
2017-10-19 09:43:00,58.2,48.8,30.00,WNW,297,2.3,2.3,71,0.00,CLR,,0.00,WeatherDisplay:10.37,2017-10-19 13:43:00,
2017-10-19 09:48:00,58.3,48.9,30.01,WSW,255,4.6,4.6,71,0.00,CLR,,0.00,WeatherDisplay:10.37,2017-10-19 13:48:00,
2017-10-19 09:53:00,58.6,49.2,30.00,South,189,4.6,4.6,71,0.00,CLR,,0.00,WeatherDisplay:10.37,2017-10-19 13:53:00,
2017-10-19 09:58:00,59.1,49.3,30.00,SSE,162,3.5,3.5,70,0.00,CLR,,0.00,WeatherDisplay:10.37,2017-10-19 13:58:00,
2017-10-19 10:03:00,59.3,49.1,30.01,WNW,289,4.6,4.6,69,0.00,CLR,,0.00,WeatherDisplay:10.37,2017-10-19 14:03:00,
2017-10-19 10:08:00,59.5,49.3,30.01,West,276,4.0,4.0,69,0.00,CLR,,0.00,WeatherDisplay:10.37,2017-10-19 14:08:00,
2017-10-19 10:13:00,59.7,49.5,30.01,West,274,3.5,3.5,69,0.00,CLR,,0.00,WeatherDisplay:10.37,2017-10-19 14:13:00,
2017-10-19 10:18:00,59.8,49.6,30.01,SSE,165,3.5,3.5,69,0.00,CLR,,0.00,WeatherDisplay:10.37,2017-10-19 14:18:00,
2017-10-19 10:23:00,59.9,49.7,30.01,SSE,165,2.3,2.3,69,0.00,CLR,,0.00,WeatherDisplay:10.37,2017-10-19 14:23:00,
2017-10-19 10:28:00,60.1,49.9,30.01,NW,322,2.3,0.0,69,0.00,CLR,,0.00,WeatherDisplay:10.37,2017-10-19 14:28:00,
2017-10-19 10:33:00,60.5,49.9,30.01,NW,319,2.0,2.0,68,0.00,CLR,,0.00,WeatherDisplay:10.37,2017-10-19 14:33:00,
2017-10-19 10:38:00,60.4,49.8,30.01,WSW,240,3.5,3.5,68,0.00,CLR,,0.00,WeatherDisplay:10.37,2017-10-19 14:38:00,
2017-10-19 10:43:00,60.6,50.0,30.01,NE,46,3.5,3.5,68,0.00,CLR,,0.00,WeatherDisplay:10.37,2017-10-19 14:43:00,
2017-10-19 10:48:00,60.7,49.7,30.01,South,191,3.5,3.5,67,0.00,CLR,,0.00,WeatherDisplay:10.37,2017-10-19 14:48:00,
2017-10-19 10:53:00,60.8,49.8,30.01,SSW,200,3.5,3.5,67,0.00,CLR,,0.00,WeatherDisplay:10.37,2017-10-19 14:53:00,
2017-10-19 10:58:00,61.2,50.6,30.01,South,175,1.2,0.0,68,0.00,CLR,,0.00,WeatherDisplay:10.37,2017-10-19 14:58:00,
2017-10-19 11:03:00,61.7,50.6,30.01,SE,134,3.5,3.5,67,0.00,CLR,,0.00,WeatherDisplay:10.37,2017-10-19 15:03:00,
2017-10-19 11:08:00,61.9,50.4,30.01,NW,304,3.5,3.5,66,0.00,CLR,,0.00,WeatherDisplay:10.37,2017-10-19 15:08:00,
2017-10-19 11:14:00,62.3,50.8,30.01,SSE,167,2.3,2.3,66,0.00,CLR,,0.00,WeatherDisplay:10.37,2017-10-19 15:14:00,
2017-10-19 11:19:00,62.6,50.7,30.02,SE,127,2.3,2.3,65,0.00,CLR,,0.00,WeatherDisplay:10.37,2017-10-19 15:19:00,
2017-10-19 11:24:00,62.7,50.8,30.02,WSW,245,3.5,3.5,65,0.00,CLR,,0.00,WeatherDisplay:10.37,2017-10-19 15:24:00,
2017-10-19 11:29:00,63.0,50.6,30.02,South,176,3.5,3.5,64,0.00,CLR,,0.00,WeatherDisplay:10.37,2017-10-19 15:29:00,
2017-10-19 11:34:00,63.3,50.9,30.02,SSE,166,3.5,3.5,64,0.00,CLR,,0.00,WeatherDisplay:10.37,2017-10-19 15:34:00,
2017-10-19 11:39:00,63.6,50.8,30.02,South,185,2.3,2.3,63,0.00,CLR,,0.00,WeatherDisplay:10.37,2017-10-19 15:39:00,
2017-10-19 11:44:00,63.8,51.0,30.02,SSE,151,2.3,2.6,63,0.00,CLR,,0.00,WeatherDisplay:10.37,2017-10-19 15:44:00,
2017-10-19 11:49:00,64.0,51.1,30.02,WSW,248,2.3,2.3,63,0.00,CLR,,0.00,WeatherDisplay:10.37,2017-10-19 15:49:00,
2017-10-19 11:54:00,64.1,51.2,30.02,NW,318,3.5,3.5,63,0.00,CLR,,0.00,WeatherDisplay:10.37,2017-10-19 15:54:00,
2017-10-19 11:59:00,64.5,51.2,30.02,NW,309,2.3,2.3,62,0.00,CLR,,0.00,WeatherDisplay:10.37,2017-10-19 15:59:00,
2017-10-19 12:04:00,64.8,51.5,30.02,WSW,256,3.5,3.5,62,0.00,CLR,,0.00,WeatherDisplay:10.37,2017-10-19 16:04:00,
2017-10-19 12:09:00,65.1,51.8,30.02,SSW,194,3.5,3.5,62,0.00,CLR,,0.00,WeatherDisplay:10.37,2017-10-19 16:09:00,
2017-10-19 12:14:00,65.2,51.4,30.01,South,174,1.2,1.2,61,0.00,CLR,,0.00,WeatherDisplay:10.37,2017-10-19 16:14:00,
2017-10-19 12:19:00,65.4,51.6,30.01,South,181,2.3,2.3,61,0.00,CLR,,0.00,WeatherDisplay:10.37,2017-10-19 16:19:00,
2017-10-19 12:24:00,65.7,51.4,30.01,South,175,2.3,2.3,60,0.00,CLR,,0.00,WeatherDisplay:10.37,2017-10-19 16:24:00,
2017-10-19 12:29:00,66.0,51.3,30.01,WNW,288,4.6,4.6,59,0.00,CLR,,0.00,WeatherDisplay:10.37,2017-10-19 16:29:00,
2017-10-19 12:34:00,65.7,51.0,30.01,ESE,112,5.8,5.8,59,0.00,CLR,,0.00,WeatherDisplay:10.37,2017-10-19 16:34:00,
2017-10-19 12:39:00,66.1,51.8,30.01,WSW,250,3.0,3.0,60,0.00,CLR,,0.00,WeatherDisplay:10.37,2017-10-19 16:39:00,
2017-10-19 12:44:00,66.2,51.4,30.01,SE,141,2.3,2.3,59,0.00,CLR,,0.00,WeatherDisplay:10.37,2017-10-19 16:44:00,
2017-10-19 12:49:00,66.3,51.5,30.00,WSW,240,2.3,2.3,59,0.00,CLR,,0.00,WeatherDisplay:10.37,2017-10-19 16:49:00,
2017-10-19 12:54:00,66.3,51.1,30.00,SW,229,3.5,3.5,58,0.00,CLR,,0.00,WeatherDisplay:10.37,2017-10-19 16:54:00,
2017-10-19 12:59:00,66.2,51.0,30.01,WSW,251,4.6,4.6,58,0.00,CLR,,0.00,WeatherDisplay:10.37,2017-10-19 16:59:00,
2017-10-19 13:04:00,66.4,50.7,30.01,WSW,256,3.5,3.5,57,0.00,CLR,,0.00,WeatherDisplay:10.37,2017-10-19 17:04:00,